Main page
METAR-TAF:

METAR-TAF

Airports :

Islay Airport

Islay, Scotland

latitude: 55-40-55N, longitude: 006-15-24W, elevation: 16 m

Current weather observation

The report was made 50 minutes ago, at 02:50 UTC
Wind 5 kt from the North
Temperature 7°C
Humidity 87%
Pressure 1017 hPa
Visibility 10 km or more

METAR: EGPI 230250Z AUTO 35005KT 9999 BKN042/// 07/05 Q1017 RERA

Time: 04:40 (03:40 UTC)

Forecast

The report was made 1 hour and 42 minutes ago, at 01:58 UTC
Forecast valid from 23 at 03 UTC to 23 at 12 UTC
Wind 12 kt from the North/Northwest
Visibility 10 km or more
Scattered clouds at a height of 2500 ft
Probability 30% :
Temporary
from 23 at 03 UTC to 23 at 08 UTC
Wind 15 kt from the North/Northwest with gusts up to 25 kt
Visibility: 8000 m
rain showers
Temporary
from 23 at 08 UTC to 23 at 12 UTC
Wind 18 kt from the Northwest with gusts up to 28 kt
Visibility: 6000 m
rain showers

TAF: EGPI 230158Z 2303/2312 34012KT 9999 SCT025 PROB30 TEMPO 2303/2308 34015G25KT 8000 SHRA TEMPO 2308/2312 32018G28KT 6000 SHRA

Weather observations and forecasts of more than 4000 airports (METAR and TAF reports).

The available stations are represented by yellow and red dots on the map.

Hover mouse over dot to see the name of the station.

Then click to see weather observations and forecasts.

To change the map : click on the green buttons with a black cross to zoom in, on the green button with a dash to zoom out, or on the green arrows for adjacent maps.


METAR-TAF: